Happy Valley, Tennessee
Current Conditions -  °F | °C
As of 10:53 PM on Saturday 25 Oct 2014 (Local Time) from KTYS Reporting Station
Clear Clear  
Wind Chill: 58°   Ceiling: Unl
Heat Index: 58°   Visibility: 10mi
Dew Point: 49°   Wind: 3mph
Humidity: 72%   Direction: 200°SSW
Pressure: 30.03"   Gusts: NA
Location:  35.5537°N, 83.9603°W
Report Text: KTYS 260253Z 20003KT 10SM CLR 14/09 A3003 RMK AO2 SLP165 T01440094 51001
Loading
Personal Weather Stations






























Interactive Weather Map New forecast layout! Learn more

10-Day Weather Forecast

Advertisements
Track Severe Weather on mobile